sensor_id;sensor_type;location;lat;lon;timestamp;pressure;altitude;pressure_sealevel;temperature;humidity
64230;BME280;50547;49.498;0.092;2022-09-25T00:01:32;1013;;;15.71;80.66
64230;BME280;50547;49.498;0.092;2022-09-25T00:04:01;1013;;;15.44;81.17
64230;BME280;50547;49.498;0.092;2022-09-25T00:06:30;1014;;;15.34;81.44
64230;BME280;50547;49.498;0.092;2022-09-25T00:08:59;1014;;;15.35;80.55
64230;BME280;50547;49.498;0.092;2022-09-25T00:11:30;1014;;;15.28;80.53
64230;BME280;50547;49.498;0.092;2022-09-25T00:14:00;1014;;;15.04;81.90
64230;BME280;50547;49.498;0.092;2022-09-25T00:16:30;1014;;;14.92;82.64
64230;BME280;50547;49.498;0.092;2022-09-25T00:19:00;1014;;;14.80;83.75
64230;BME280;50547;49.498;0.092;2022-09-25T00:21:30;1014;;;14.75;83.79
64230;BME280;50547;49.498;0.092;2022-09-25T00:24:02;1014;;;14.83;83.51
64230;BME280;50547;49.498;0.092;2022-09-25T00:26:35;1014;;;14.91;83.01
64230;BME280;50547;49.498;0.092;2022-09-25T00:29:05;1014;;;14.89;82.89
64230;BME280;50547;49.498;0.092;2022-09-25T00:31:35;1014;;;14.97;82.73
64230;BME280;50547;49.498;0.092;2022-09-25T00:34:04;1014;;;15.11;82.20
64230;BME280;50547;49.498;0.092;2022-09-25T00:36:33;1014;;;15.18;81.96
64230;BME280;50547;49.498;0.092;2022-09-25T00:39:03;1014;;;15.18;82.33
64230;BME280;50547;49.498;0.092;2022-09-25T00:41:33;1014;;;15.09;82.98
64230;BME280;50547;49.498;0.092;2022-09-25T00:44:38;1014;;;15.12;83.17
64230;BME280;50547;49.498;0.092;2022-09-25T00:47:12;1014;;;15.24;82.69
64230;BME280;50547;49.498;0.092;2022-09-25T00:49:43;1014;;;15.30;82.62
64230;BME280;50547;49.498;0.092;2022-09-25T00:52:13;1014;;;15.37;82.37
64230;BME280;50547;49.498;0.092;2022-09-25T00:54:45;1014;;;15.41;82.35
64230;BME280;50547;49.498;0.092;2022-09-25T00:57:18;1014;;;15.41;82.44
64230;BME280;50547;49.498;0.092;2022-09-25T00:59:51;1014;;;15.49;82.34
64230;BME280;50547;49.498;0.092;2022-09-25T01:02:24;1014;;;15.54;82.22
64230;BME280;50547;49.498;0.092;2022-09-25T01:04:55;1014;;;15.60;81.87
64230;BME280;50547;49.498;0.092;2022-09-25T01:07:25;1014;;;15.66;81.83
64230;BME280;50547;49.498;0.092;2022-09-25T01:09:54;1014;;;15.73;81.73
64230;BME280;50547;49.498;0.092;2022-09-25T01:12:24;1014;;;15.77;81.61
64230;BME280;50547;49.498;0.092;2022-09-25T01:14:53;1014;;;15.75;81.69
64230;BME280;50547;49.498;0.092;2022-09-25T01:17:26;1014;;;15.75;81.74
64230;BME280;50547;49.498;0.092;2022-09-25T01:20:07;1014;;;15.76;81.65
64230;BME280;50547;49.498;0.092;2022-09-25T01:22:52;1014;;;15.82;81.48
64230;BME280;50547;49.498;0.092;2022-09-25T01:25:42;1014;;;15.87;81.38
64230;BME280;50547;49.498;0.092;2022-09-25T01:28:19;1014;;;15.87;81.58
64230;BME280;50547;49.498;0.092;2022-09-25T01:31:08;1014;;;16.01;81.23
64230;BME280;50547;49.498;0.092;2022-09-25T01:33:45;1014;;;15.98;81.31
64230;BME280;50547;49.498;0.092;2022-09-25T01:36:22;1014;;;15.89;81.59
64230;BME280;50547;49.498;0.092;2022-09-25T01:38:56;1014;;;15.86;81.62
64230;BME280;50547;49.498;0.092;2022-09-25T01:41:36;1014;;;15.68;82.52
64230;BME280;50547;49.498;0.092;2022-09-25T01:44:11;1014;;;15.50;83.20
64230;BME280;50547;49.498;0.092;2022-09-25T01:46:46;1014;;;15.30;84.23
64230;BME280;50547;49.498;0.092;2022-09-25T01:49:19;1014;;;15.27;84.29
64230;BME280;50547;49.498;0.092;2022-09-25T01:51:53;1014;;;15.15;84.47
64230;BME280;50547;49.498;0.092;2022-09-25T01:54:27;1014;;;15.21;83.98
64230;BME280;50547;49.498;0.092;2022-09-25T01:57:03;1014;;;15.26;83.60
64230;BME280;50547;49.498;0.092;2022-09-25T01:59:35;1014;;;15.20;83.89
64230;BME280;50547;49.498;0.092;2022-09-25T02:02:09;1014;;;15.23;83.72
64230;BME280;50547;49.498;0.092;2022-09-25T02:04:41;1014;;;15.28;83.43
64230;BME280;50547;49.498;0.092;2022-09-25T02:07:15;1014;;;15.26;83.49
64230;BME280;50547;49.498;0.092;2022-09-25T02:09:50;1014;;;15.22;83.63
64230;BME280;50547;49.498;0.092;2022-09-25T02:12:24;1014;;;15.27;83.38
64230;BME280;50547;49.498;0.092;2022-09-25T02:14:59;1014;;;15.39;83.00
64230;BME280;50547;49.498;0.092;2022-09-25T02:17:34;1014;;;15.42;82.81
64230;BME280;50547;49.498;0.092;2022-09-25T02:20:07;1014;;;15.42;82.87
64230;BME280;50547;49.498;0.092;2022-09-25T02:22:36;1014;;;15.39;82.97
64230;BME280;50547;49.498;0.092;2022-09-25T02:25:10;1014;;;15.42;82.99
64230;BME280;50547;49.498;0.092;2022-09-25T02:27:41;1014;;;15.41;82.95
64230;BME280;50547;49.498;0.092;2022-09-25T02:30:10;1014;;;15.42;82.87
64230;BME280;50547;49.498;0.092;2022-09-25T02:32:40;1014;;;15.39;83.03
64230;BME280;50547;49.498;0.092;2022-09-25T02:35:09;1014;;;15.39;83.12
64230;BME280;50547;49.498;0.092;2022-09-25T02:37:38;1014;;;15.50;82.81
64230;BME280;50547;49.498;0.092;2022-09-25T02:40:07;1014;;;15.54;82.68
64230;BME280;50547;49.498;0.092;2022-09-25T02:42:41;1014;;;15.58;82.51
64230;BME280;50547;49.498;0.092;2022-09-25T02:45:27;1014;;;15.70;82.25
64230;BME280;50547;49.498;0.092;2022-09-25T02:48:08;1014;;;15.70;82.09
64230;BME280;50547;49.498;0.092;2022-09-25T02:50:46;1014;;;15.46;83.13
64230;BME280;50547;49.498;0.092;2022-09-25T02:53:22;1014;;;15.49;82.93
64230;BME280;50547;49.498;0.092;2022-09-25T02:55:59;1014;;;15.46;83.03
64230;BME280;50547;49.498;0.092;2022-09-25T02:58:33;1014;;;15.54;82.74
64230;BME280;50547;49.498;0.092;2022-09-25T03:01:06;1014;;;15.51;82.83
64230;BME280;50547;49.498;0.092;2022-09-25T03:03:37;1014;;;15.59;82.59
64230;BME280;50547;49.498;0.092;2022-09-25T03:06:08;1014;;;15.70;82.17
64230;BME280;50547;49.498;0.092;2022-09-25T03:08:41;1014;;;15.50;82.69
64230;BME280;50547;49.498;0.092;2022-09-25T03:11:14;1014;;;15.34;83.36
64230;BME280;50547;49.498;0.092;2022-09-25T03:13:44;1014;;;15.23;83.34
64230;BME280;50547;49.498;0.092;2022-09-25T03:16:17;1014;;;15.21;83.20
64230;BME280;50547;49.498;0.092;2022-09-25T03:18:47;1014;;;15.03;83.31
64230;BME280;50547;49.498;0.092;2022-09-25T03:21:16;1014;;;14.98;83.35
64230;BME280;50547;49.498;0.092;2022-09-25T03:23:45;1014;;;15.06;82.71
64230;BME280;50547;49.498;0.092;2022-09-25T03:26:14;1014;;;15.06;82.51
64230;BME280;50547;49.498;0.092;2022-09-25T03:28:45;1014;;;15.03;82.50
64230;BME280;50547;49.498;0.092;2022-09-25T03:31:14;1014;;;15.03;82.63
64230;BME280;50547;49.498;0.092;2022-09-25T03:33:44;1014;;;14.95;82.86
64230;BME280;50547;49.498;0.092;2022-09-25T03:36:15;1014;;;14.88;83.34
64230;BME280;50547;49.498;0.092;2022-09-25T03:38:45;1014;;;14.89;83.33
64230;BME280;50547;49.498;0.092;2022-09-25T03:41:16;1014;;;14.81;83.45
64230;BME280;50547;49.498;0.092;2022-09-25T03:43:48;1014;;;14.83;83.37
64230;BME280;50547;49.498;0.092;2022-09-25T03:46:19;1014;;;14.73;83.74
64230;BME280;50547;49.498;0.092;2022-09-25T03:48:48;1014;;;14.70;83.77
64230;BME280;50547;49.498;0.092;2022-09-25T03:51:17;1014;;;14.60;83.95
64230;BME280;50547;49.498;0.092;2022-09-25T03:53:48;1014;;;14.53;83.51
64230;BME280;50547;49.498;0.092;2022-09-25T03:56:19;1014;;;14.38;83.37
64230;BME280;50547;49.498;0.092;2022-09-25T03:58:49;1014;;;14.34;83.09
64230;BME280;50547;49.498;0.092;2022-09-25T04:01:19;1014;;;14.36;82.83
64230;BME280;50547;49.498;0.092;2022-09-25T04:03:49;1014;;;14.39;82.39
64230;BME280;50547;49.498;0.092;2022-09-25T04:06:20;1014;;;14.43;82.16
64230;BME280;50547;49.498;0.092;2022-09-25T04:08:50;1014;;;14.34;81.92
64230;BME280;50547;49.498;0.092;2022-09-25T04:11:20;1014;;;14.38;81.87
64230;BME280;50547;49.498;0.092;2022-09-25T04:13:50;1014;;;14.44;81.75
64230;BME280;50547;49.498;0.092;2022-09-25T04:16:19;1014;;;14.51;81.50
64230;BME280;50547;49.498;0.092;2022-09-25T04:18:48;1014;;;14.54;81.32
64230;BME280;50547;49.498;0.092;2022-09-25T04:21:17;1014;;;14.52;81.45
64230;BME280;50547;49.498;0.092;2022-09-25T04:23:46;1014;;;14.45;81.78
64230;BME280;50547;49.498;0.092;2022-09-25T04:26:15;1014;;;14.42;82.02
64230;BME280;50547;49.498;0.092;2022-09-25T04:28:44;1014;;;14.39;82.32
64230;BME280;50547;49.498;0.092;2022-09-25T04:31:13;1014;;;14.36;82.59
64230;BME280;50547;49.498;0.092;2022-09-25T04:33:42;1014;;;14.37;82.67
64230;BME280;50547;49.498;0.092;2022-09-25T04:36:11;1014;;;14.32;82.92
64230;BME280;50547;49.498;0.092;2022-09-25T04:38:40;1014;;;14.20;83.31
64230;BME280;50547;49.498;0.092;2022-09-25T04:41:09;1014;;;14.30;82.83
64230;BME280;50547;49.498;0.092;2022-09-25T04:43:38;1014;;;14.31;82.45
64230;BME280;50547;49.498;0.092;2022-09-25T04:46:10;1014;;;14.40;82.16
64230;BME280;50547;49.498;0.092;2022-09-25T04:48:48;1014;;;14.40;82.06
64230;BME280;50547;49.498;0.092;2022-09-25T04:51:17;1014;;;14.43;81.79
64230;BME280;50547;49.498;0.092;2022-09-25T04:53:46;1014;;;14.39;82.15
64230;BME280;50547;49.498;0.092;2022-09-25T04:56:12;1014;;;14.39;82.30
64230;BME280;50547;49.498;0.092;2022-09-25T04:58:43;1014;;;14.51;82.02
64230;BME280;50547;49.498;0.092;2022-09-25T05:01:14;1014;;;14.64;81.66
64230;BME280;50547;49.498;0.092;2022-09-25T05:03:46;1014;;;14.73;81.46
64230;BME280;50547;49.498;0.092;2022-09-25T05:06:16;1014;;;14.80;81.45
64230;BME280;50547;49.498;0.092;2022-09-25T05:08:46;1014;;;14.87;81.43
64230;BME280;50547;49.498;0.092;2022-09-25T05:11:16;1014;;;14.93;81.31
64230;BME280;50547;49.498;0.092;2022-09-25T05:13:48;1014;;;14.90;81.56
64230;BME280;50547;49.498;0.092;2022-09-25T05:16:18;1014;;;14.92;81.53
64230;BME280;50547;49.498;0.092;2022-09-25T05:18:48;1014;;;14.90;81.79
64230;BME280;50547;49.498;0.092;2022-09-25T05:21:17;1014;;;15.00;81.61
64230;BME280;50547;49.498;0.092;2022-09-25T05:23:47;1014;;;15.01;81.71
64230;BME280;50547;49.498;0.092;2022-09-25T05:26:16;1014;;;14.92;81.98
64230;BME280;50547;49.498;0.092;2022-09-25T05:28:47;1014;;;14.86;82.44
64230;BME280;50547;49.498;0.092;2022-09-25T05:31:16;1014;;;14.69;83.12
64230;BME280;50547;49.498;0.092;2022-09-25T05:33:46;1014;;;14.64;83.37
64230;BME280;50547;49.498;0.092;2022-09-25T05:36:15;1014;;;14.68;83.02
64230;BME280;50547;49.498;0.092;2022-09-25T05:38:44;1014;;;14.64;82.98
64230;BME280;50547;49.498;0.092;2022-09-25T05:41:13;1014;;;14.69;82.97
64230;BME280;50547;49.498;0.092;2022-09-25T05:43:43;1014;;;14.63;83.16
64230;BME280;50547;49.498;0.092;2022-09-25T05:46:13;1014;;;14.62;83.18
64230;BME280;50547;49.498;0.092;2022-09-25T05:48:43;1014;;;14.59;83.28
64230;BME280;50547;49.498;0.092;2022-09-25T05:51:12;1014;;;14.60;83.13
64230;BME280;50547;49.498;0.092;2022-09-25T05:53:41;1014;;;14.57;83.20
64230;BME280;50547;49.498;0.092;2022-09-25T05:56:10;1014;;;14.56;83.21
64230;BME280;50547;49.498;0.092;2022-09-25T05:58:39;1014;;;14.72;82.53
64230;BME280;50547;49.498;0.092;2022-09-25T06:01:08;1014;;;14.86;82.04
64230;BME280;50547;49.498;0.092;2022-09-25T06:03:37;1014;;;14.91;81.73
64230;BME280;50547;49.498;0.092;2022-09-25T06:06:07;1014;;;14.94;81.12
64230;BME280;50547;49.498;0.092;2022-09-25T06:08:36;1015;;;14.80;81.93
64230;BME280;50547;49.498;0.092;2022-09-25T06:11:06;1014;;;14.88;82.08
64230;BME280;50547;49.498;0.092;2022-09-25T06:13:35;1015;;;15.03;81.56
64230;BME280;50547;49.498;0.092;2022-09-25T06:16:12;1015;;;15.20;81.28
64230;BME280;50547;49.498;0.092;2022-09-25T06:18:42;1015;;;15.31;81.10
64230;BME280;50547;49.498;0.092;2022-09-25T06:21:11;1015;;;15.35;80.89
64230;BME280;50547;49.498;0.092;2022-09-25T06:23:41;1015;;;15.22;81.50
64230;BME280;50547;49.498;0.092;2022-09-25T06:26:10;1015;;;15.37;81.12
64230;BME280;50547;49.498;0.092;2022-09-25T06:28:39;1015;;;15.58;80.50
64230;BME280;50547;49.498;0.092;2022-09-25T06:31:08;1015;;;15.87;79.91
64230;BME280;50547;49.498;0.092;2022-09-25T06:33:37;1015;;;15.94;79.91
64230;BME280;50547;49.498;0.092;2022-09-25T06:36:06;1015;;;15.87;79.92
64230;BME280;50547;49.498;0.092;2022-09-25T06:38:35;1015;;;15.64;80.29
64230;BME280;50547;49.498;0.092;2022-09-25T06:41:05;1015;;;15.65;80.50
64230;BME280;50547;49.498;0.092;2022-09-25T06:43:34;1015;;;15.53;80.59
64230;BME280;50547;49.498;0.092;2022-09-25T06:46:03;1015;;;15.47;80.80
64230;BME280;50547;49.498;0.092;2022-09-25T06:48:32;1015;;;15.48;80.63
64230;BME280;50547;49.498;0.092;2022-09-25T06:51:02;1015;;;15.59;80.33
64230;BME280;50547;49.498;0.092;2022-09-25T06:53:31;1015;;;15.47;80.49
64230;BME280;50547;49.498;0.092;2022-09-25T06:55:57;1015;;;15.33;80.80
64230;BME280;50547;49.498;0.092;2022-09-25T06:58:28;1015;;;15.31;80.77
64230;BME280;50547;49.498;0.092;2022-09-25T07:00:54;1015;;;15.21;80.98
64230;BME280;50547;49.498;0.092;2022-09-25T07:03:24;1015;;;15.07;81.38
64230;BME280;50547;49.498;0.092;2022-09-25T07:05:53;1015;;;15.11;81.36
64230;BME280;50547;49.498;0.092;2022-09-25T07:08:22;1015;;;15.21;80.82
64230;BME280;50547;49.498;0.092;2022-09-25T07:10:53;1015;;;15.28;80.60
64230;BME280;50547;49.498;0.092;2022-09-25T07:13:25;1015;;;15.30;80.44
64230;BME280;50547;49.498;0.092;2022-09-25T07:15:56;1015;;;15.23;80.80
64230;BME280;50547;49.498;0.092;2022-09-25T07:18:27;1015;;;15.43;80.22
64230;BME280;50547;49.498;0.092;2022-09-25T07:21:01;1015;;;15.47;80.15
64230;BME280;50547;49.498;0.092;2022-09-25T07:23:31;1015;;;15.46;80.25
64230;BME280;50547;49.498;0.092;2022-09-25T07:26:05;1015;;;15.63;80.05
64230;BME280;50547;49.498;0.092;2022-09-25T07:28:35;1015;;;15.78;79.61
64230;BME280;50547;49.498;0.092;2022-09-25T07:31:14;1015;;;15.67;80.27
64230;BME280;50547;49.498;0.092;2022-09-25T07:33:45;1015;;;15.75;80.10
64230;BME280;50547;49.498;0.092;2022-09-25T07:36:16;1015;;;15.87;79.57
64230;BME280;50547;49.498;0.092;2022-09-25T07:38:48;1015;;;15.74;80.07
64230;BME280;50547;49.498;0.092;2022-09-25T07:41:18;1015;;;15.68;80.63
64230;BME280;50547;49.498;0.092;2022-09-25T07:43:50;1015;;;15.81;80.41
64230;BME280;50547;49.498;0.092;2022-09-25T07:46:19;1015;;;15.74;80.93
64230;BME280;50547;49.498;0.092;2022-09-25T07:48:49;1015;;;15.70;80.64
64230;BME280;50547;49.498;0.092;2022-09-25T07:51:18;1015;;;15.72;80.53
64230;BME280;50547;49.498;0.092;2022-09-25T07:54:17;1015;;;15.66;80.43
64230;BME280;50547;49.498;0.092;2022-09-25T07:56:46;1015;;;15.71;80.40
64230;BME280;50547;49.498;0.092;2022-09-25T07:59:15;1015;;;15.84;79.76
64230;BME280;50547;49.498;0.092;2022-09-25T08:01:44;1015;;;15.84;79.70
64230;BME280;50547;49.498;0.092;2022-09-25T08:04:27;1015;;;15.94;79.58
64230;BME280;50547;49.498;0.092;2022-09-25T08:06:57;1015;;;16.02;79.29
64230;BME280;50547;49.498;0.092;2022-09-25T08:09:26;1015;;;15.87;79.36
64230;BME280;50547;49.498;0.092;2022-09-25T08:11:55;1015;;;16.11;79.00
64230;BME280;50547;49.498;0.092;2022-09-25T08:14:24;1015;;;16.12;78.86
64230;BME280;50547;49.498;0.092;2022-09-25T08:16:53;1015;;;16.19;78.80
64230;BME280;50547;49.498;0.092;2022-09-25T08:19:22;1015;;;16.27;78.56
64230;BME280;50547;49.498;0.092;2022-09-25T08:21:51;1015;;;16.44;78.15
64230;BME280;50547;49.498;0.092;2022-09-25T08:24:20;1015;;;16.30;78.27
64230;BME280;50547;49.498;0.092;2022-09-25T08:26:49;1015;;;16.30;78.39
64230;BME280;50547;49.498;0.092;2022-09-25T08:29:16;1015;;;16.32;78.09
64230;BME280;50547;49.498;0.092;2022-09-25T08:31:45;1015;;;16.23;78.55
64230;BME280;50547;49.498;0.092;2022-09-25T08:34:14;1015;;;16.15;78.84
64230;BME280;50547;49.498;0.092;2022-09-25T08:36:43;1015;;;15.96;78.21
64230;BME280;50547;49.498;0.092;2022-09-25T08:39:12;1015;;;15.90;78.31
64230;BME280;50547;49.498;0.092;2022-09-25T08:41:48;1015;;;16.08;78.03
64230;BME280;50547;49.498;0.092;2022-09-25T08:44:23;1015;;;16.36;77.61
64230;BME280;50547;49.498;0.092;2022-09-25T08:47:20;1015;;;16.22;76.06
64230;BME280;50547;49.498;0.092;2022-09-25T08:49:59;1015;;;15.94;76.92
64230;BME280;50547;49.498;0.092;2022-09-25T08:52:30;1015;;;15.93;76.69
64230;BME280;50547;49.498;0.092;2022-09-25T08:55:00;1015;;;16.17;76.04
64230;BME280;50547;49.498;0.092;2022-09-25T08:57:31;1015;;;16.50;74.86
64230;BME280;50547;49.498;0.092;2022-09-25T09:00:17;1015;;;16.70;74.25
64230;BME280;50547;49.498;0.092;2022-09-25T09:02:51;1015;;;16.78;74.07
64230;BME280;50547;49.498;0.092;2022-09-25T09:05:29;1015;;;16.65;74.79
64230;BME280;50547;49.498;0.092;2022-09-25T09:08:01;1015;;;16.37;75.30
64230;BME280;50547;49.498;0.092;2022-09-25T09:10:33;1015;;;16.31;75.95
64230;BME280;50547;49.498;0.092;2022-09-25T09:13:09;1015;;;16.38;75.88
64230;BME280;50547;49.498;0.092;2022-09-25T09:15:43;1015;;;16.24;75.16
64230;BME280;50547;49.498;0.092;2022-09-25T09:18:18;1015;;;16.01;73.30
64230;BME280;50547;49.498;0.092;2022-09-25T09:20:51;1015;;;16.07;73.01
64230;BME280;50547;49.498;0.092;2022-09-25T09:23:22;1015;;;16.31;71.84
64230;BME280;50547;49.498;0.092;2022-09-25T09:26:03;1015;;;16.35;72.28
64230;BME280;50547;49.498;0.092;2022-09-25T09:29:45;1015;;;16.25;72.51
64230;BME280;50547;49.498;0.092;2022-09-25T09:32:34;1015;;;16.44;73.29
64230;BME280;50547;49.498;0.092;2022-09-25T09:35:14;1015;;;16.55;73.05
64230;BME280;50547;49.498;0.092;2022-09-25T09:37:52;1015;;;16.56;72.84
64230;BME280;50547;49.498;0.092;2022-09-25T09:40:30;1015;;;16.82;72.51
64230;BME280;50547;49.498;0.092;2022-09-25T09:43:04;1015;;;17.09;71.28
64230;BME280;50547;49.498;0.092;2022-09-25T09:45:43;1015;;;17.24;72.01
64230;BME280;50547;49.498;0.092;2022-09-25T09:48:25;1015;;;17.45;71.03
64230;BME280;50547;49.498;0.092;2022-09-25T09:51:00;1015;;;17.60;70.83
64230;BME280;50547;49.498;0.092;2022-09-25T09:53:41;1015;;;18.00;69.78
64230;BME280;50547;49.498;0.092;2022-09-25T09:56:15;1015;;;17.50;68.73
64230;BME280;50547;49.498;0.092;2022-09-25T09:58:48;1015;;;17.61;69.18
64230;BME280;50547;49.498;0.092;2022-09-25T10:01:20;1015;;;17.70;69.50
64230;BME280;50547;49.498;0.092;2022-09-25T10:03:57;1015;;;17.79;70.03
64230;BME280;50547;49.498;0.092;2022-09-25T10:06:32;1015;;;17.09;71.63
64230;BME280;50547;49.498;0.092;2022-09-25T10:09:03;1015;;;16.70;74.21
64230;BME280;50547;49.498;0.092;2022-09-25T10:11:32;1015;;;16.50;75.33
64230;BME280;50547;49.498;0.092;2022-09-25T10:14:02;1015;;;16.31;76.34
64230;BME280;50547;49.498;0.092;2022-09-25T10:16:33;1015;;;16.10;77.08
64230;BME280;50547;49.498;0.092;2022-09-25T10:19:05;1015;;;16.10;76.72
64230;BME280;50547;49.498;0.092;2022-09-25T10:21:38;1015;;;16.15;76.45
64230;BME280;50547;49.498;0.092;2022-09-25T10:24:08;1015;;;15.94;76.45
64230;BME280;50547;49.498;0.092;2022-09-25T10:26:38;1015;;;15.97;76.07
64230;BME280;50547;49.498;0.092;2022-09-25T10:29:25;1015;;;16.09;76.18
64230;BME280;50547;49.498;0.092;2022-09-25T10:31:57;1015;;;16.26;75.37
64230;BME280;50547;49.498;0.092;2022-09-25T10:34:26;1015;;;16.19;75.75
64230;BME280;50547;49.498;0.092;2022-09-25T10:36:56;1015;;;16.34;75.92
64230;BME280;50547;49.498;0.092;2022-09-25T10:39:33;1015;;;16.54;75.09
64230;BME280;50547;49.498;0.092;2022-09-25T10:42:05;1015;;;16.59;75.04
64230;BME280;50547;49.498;0.092;2022-09-25T10:44:36;1015;;;16.64;74.80
64230;BME280;50547;49.498;0.092;2022-09-25T10:47:28;1015;;;16.63;75.59
64230;BME280;50547;49.498;0.092;2022-09-25T10:50:08;1015;;;16.77;75.10
64230;BME280;50547;49.498;0.092;2022-09-25T10:52:45;1015;;;16.92;73.73
64230;BME280;50547;49.498;0.092;2022-09-25T10:55:21;1015;;;16.86;73.69
64230;BME280;50547;49.498;0.092;2022-09-25T10:57:56;1016;;;16.88;73.26
64230;BME280;50547;49.498;0.092;2022-09-25T11:00:26;1016;;;16.92;73.29
64230;BME280;50547;49.498;0.092;2022-09-25T11:02:54;1016;;;16.98;72.50
64230;BME280;50547;49.498;0.092;2022-09-25T11:05:27;1015;;;16.82;72.40
64230;BME280;50547;49.498;0.092;2022-09-25T11:08:00;1015;;;16.88;71.86
64230;BME280;50547;49.498;0.092;2022-09-25T11:10:33;1015;;;16.84;71.10
64230;BME280;50547;49.498;0.092;2022-09-25T11:13:07;1015;;;16.89;70.28
64230;BME280;50547;49.498;0.092;2022-09-25T11:15:37;1015;;;17.07;70.10
64230;BME280;50547;49.498;0.092;2022-09-25T11:18:32;1015;;;17.24;68.88
64230;BME280;50547;49.498;0.092;2022-09-25T11:21:15;1015;;;17.49;68.38
64230;BME280;50547;49.498;0.092;2022-09-25T11:23:53;1015;;;17.58;67.57
64230;BME280;50547;49.498;0.092;2022-09-25T11:26:29;1016;;;17.43;67.38
64230;BME280;50547;49.498;0.092;2022-09-25T11:29:07;1015;;;17.61;67.72
64230;BME280;50547;49.498;0.092;2022-09-25T11:31:42;1015;;;17.67;65.98
64230;BME280;50547;49.498;0.092;2022-09-25T11:34:21;1015;;;17.77;65.81
64230;BME280;50547;49.498;0.092;2022-09-25T11:36:58;1015;;;18.37;63.85
64230;BME280;50547;49.498;0.092;2022-09-25T11:39:29;1015;;;18.71;62.71
64230;BME280;50547;49.498;0.092;2022-09-25T11:42:07;1016;;;18.43;63.64
64230;BME280;50547;49.498;0.092;2022-09-25T11:44:41;1015;;;18.87;62.58
64230;BME280;50547;49.498;0.092;2022-09-25T11:47:16;1016;;;18.44;63.67
64230;BME280;50547;49.498;0.092;2022-09-25T11:49:48;1015;;;18.33;65.00
64230;BME280;50547;49.498;0.092;2022-09-25T11:52:26;1015;;;17.83;67.51
64230;BME280;50547;49.498;0.092;2022-09-25T11:55:13;1015;;;18.16;65.79
64230;BME280;50547;49.498;0.092;2022-09-25T11:57:53;1015;;;18.71;61.80
64230;BME280;50547;49.498;0.092;2022-09-25T12:00:32;1015;;;18.26;62.75
64230;BME280;50547;49.498;0.092;2022-09-25T12:03:15;1015;;;18.36;63.64
64230;BME280;50547;49.498;0.092;2022-09-25T12:06:01;1015;;;18.39;63.01
64230;BME280;50547;49.498;0.092;2022-09-25T12:08:45;1015;;;17.85;62.46
64230;BME280;50547;49.498;0.092;2022-09-25T12:11:21;1015;;;17.77;63.61
64230;BME280;50547;49.498;0.092;2022-09-25T12:13:54;1015;;;18.09;61.96
64230;BME280;50547;49.498;0.092;2022-09-25T12:16:33;1015;;;18.04;62.80
64230;BME280;50547;49.498;0.092;2022-09-25T12:19:14;1015;;;18.14;62.95
64230;BME280;50547;49.498;0.092;2022-09-25T12:21:49;1015;;;18.35;61.53
64230;BME280;50547;49.498;0.092;2022-09-25T12:24:31;1015;;;18.26;58.71
64230;BME280;50547;49.498;0.092;2022-09-25T12:27:09;1015;;;18.29;58.70
64230;BME280;50547;49.498;0.092;2022-09-25T12:29:50;1015;;;18.51;59.46
64230;BME280;50547;49.498;0.092;2022-09-25T12:32:27;1015;;;18.56;60.32
64230;BME280;50547;49.498;0.092;2022-09-25T12:35:17;1015;;;18.68;59.58
64230;BME280;50547;49.498;0.092;2022-09-25T12:37:52;1015;;;18.93;58.01
64230;BME280;50547;49.498;0.092;2022-09-25T12:40:27;1015;;;18.90;57.69
64230;BME280;50547;49.498;0.092;2022-09-25T12:43:03;1015;;;18.71;59.11
64230;BME280;50547;49.498;0.092;2022-09-25T12:45:38;1015;;;18.21;62.25
64230;BME280;50547;49.498;0.092;2022-09-25T12:48:14;1015;;;18.49;58.88
64230;BME280;50547;49.498;0.092;2022-09-25T12:50:50;1015;;;19.21;57.14
64230;BME280;50547;49.498;0.092;2022-09-25T12:53:30;1015;;;18.76;58.73
64230;BME280;50547;49.498;0.092;2022-09-25T12:56:07;1015;;;18.75;58.58
64230;BME280;50547;49.498;0.092;2022-09-25T12:58:46;1015;;;19.18;56.47
64230;BME280;50547;49.498;0.092;2022-09-25T13:01:22;1015;;;18.68;57.18
64230;BME280;50547;49.498;0.092;2022-09-25T13:04:03;1015;;;18.82;56.69
64230;BME280;50547;49.498;0.092;2022-09-25T13:06:45;1015;;;19.08;54.92
64230;BME280;50547;49.498;0.092;2022-09-25T13:09:22;1015;;;19.08;55.55
64230;BME280;50547;49.498;0.092;2022-09-25T13:11:57;1015;;;19.27;54.37
64230;BME280;50547;49.498;0.092;2022-09-25T13:14:34;1015;;;18.94;55.21
64230;BME280;50547;49.498;0.092;2022-09-25T13:17:03;1015;;;19.26;54.77
64230;BME280;50547;49.498;0.092;2022-09-25T13:19:33;1015;;;20.13;52.97
64230;BME280;50547;49.498;0.092;2022-09-25T13:22:05;1015;;;19.64;53.66
64230;BME280;50547;49.498;0.092;2022-09-25T13:24:43;1015;;;19.09;56.56
64230;BME280;50547;49.498;0.092;2022-09-25T13:27:17;1015;;;18.84;58.14
64230;BME280;50547;49.498;0.092;2022-09-25T13:29:52;1015;;;18.51;59.52
64230;BME280;50547;49.498;0.092;2022-09-25T13:32:23;1015;;;19.09;56.27
64230;BME280;50547;49.498;0.092;2022-09-25T13:34:55;1015;;;19.40;55.26
64230;BME280;50547;49.498;0.092;2022-09-25T13:37:28;1015;;;19.22;56.02
64230;BME280;50547;49.498;0.092;2022-09-25T13:39:59;1015;;;19.67;53.92
64230;BME280;50547;49.498;0.092;2022-09-25T13:42:32;1015;;;19.88;52.81
64230;BME280;50547;49.498;0.092;2022-09-25T13:45:12;1015;;;19.44;54.78
64230;BME280;50547;49.498;0.092;2022-09-25T13:47:55;1015;;;18.92;57.74
64230;BME280;50547;49.498;0.092;2022-09-25T13:50:29;1015;;;19.52;54.42
64230;BME280;50547;49.498;0.092;2022-09-25T13:53:47;1015;;;18.99;55.29
64230;BME280;50547;49.498;0.092;2022-09-25T13:56:23;1015;;;19.16;55.44
64230;BME280;50547;49.498;0.092;2022-09-25T13:59:38;1015;;;18.88;56.62
64230;BME280;50547;49.498;0.092;2022-09-25T14:02:42;1015;;;19.23;55.61
64230;BME280;50547;49.498;0.092;2022-09-25T14:05:14;1015;;;18.85;57.37
64230;BME280;50547;49.498;0.092;2022-09-25T14:07:46;1015;;;19.45;54.99
64230;BME280;50547;49.498;0.092;2022-09-25T14:10:18;1015;;;19.43;54.28
64230;BME280;50547;49.498;0.092;2022-09-25T14:12:48;1015;;;19.40;54.55
64230;BME280;50547;49.498;0.092;2022-09-25T14:15:22;1015;;;19.77;53.24
64230;BME280;50547;49.498;0.092;2022-09-25T14:17:54;1015;;;18.93;57.37
64230;BME280;50547;49.498;0.092;2022-09-25T14:20:34;1015;;;18.56;58.99